Time;durP1;ratioP1;P1;durP2;ratioP2;P2;SDS_P1;SDS_P2;PMS_P1;PMS_P2;Temp;Humidity;BMP_temperature;BMP_pressure;BME280_temperature;BME280_humidity;BME280_pressure;Samples;Min_cycle;Max_cycle;Signal;HPM_P1;HPM_P2
2023/08/02 00:00:08;;;;;;;3.05;2.55;;;;;;;24.67;82.71;99790.75;4993033;28;20055;-68
2023/08/02 00:02:39;;;;;;;4.95;2.60;;;;;;;24.73;82.44;99794.00;4993052;28;20394;-68
2023/08/02 00:05:07;;;;;;;2.90;2.55;;;;;;;24.76;81.42;99798.78;4993127;28;20057;-68
2023/08/02 00:07:36;;;;;;;3.45;2.20;;;;;;;24.62;82.67;99799.53;4992333;28;20552;-68
2023/08/02 00:10:05;;;;;;;2.38;2.17;;;;;;;24.39;82.98;99809.88;4992269;28;20054;-68
2023/08/02 00:12:33;;;;;;;2.13;1.85;;;;;;;24.60;82.24;99799.97;4992715;28;20766;-68
2023/08/02 00:15:01;;;;;;;2.88;2.55;;;;;;;24.56;81.90;99808.34;4992598;28;20062;-68
2023/08/02 00:17:29;;;;;;;2.28;2.08;;;;;;;24.47;82.23;99804.28;4993086;28;20050;-68
2023/08/02 00:19:56;;;;;;;2.03;1.92;;;;;;;24.47;82.80;99809.88;4992890;28;20054;-68
2023/08/02 00:22:24;;;;;;;2.10;1.90;;;;;;;24.46;81.59;99819.47;4992602;28;20061;-68
2023/08/02 00:24:52;;;;;;;2.17;1.98;;;;;;;24.34;81.03;99818.63;4992599;28;20486;-68
2023/08/02 00:27:20;;;;;;;3.33;1.83;;;;;;;24.34;82.06;99823.44;4992748;28;20049;-69
2023/08/02 00:29:49;;;;;;;1.90;1.70;;;;;;;24.31;79.96;99822.22;4992786;28;20042;-68
2023/08/02 00:32:19;;;;;;;2.03;1.80;;;;;;;24.35;79.14;99820.25;4975080;28;20058;-68
2023/08/02 00:34:49;;;;;;;1.85;1.75;;;;;;;24.20;79.31;99824.19;4975416;28;20042;-68
2023/08/02 00:37:17;;;;;;;2.00;1.70;;;;;;;24.16;78.67;99829.75;4992739;28;20386;-68
2023/08/02 00:39:54;;;;;;;2.03;1.90;;;;;;;24.21;78.18;99829.38;4996650;28;20397;-69
2023/08/02 00:42:23;;;;;;;2.30;2.10;;;;;;;24.21;78.36;99831.38;4978896;28;20473;-68
2023/08/02 00:44:51;;;;;;;2.53;1.77;;;;;;;24.12;77.80;99840.09;4996653;28;20049;-68
2023/08/02 00:47:19;;;;;;;1.77;1.67;;;;;;;24.10;78.14;99826.50;4996736;28;20058;-68
2023/08/02 00:49:47;;;;;;;2.00;1.83;;;;;;;24.11;78.47;99833.72;4979017;28;20046;-69
2023/08/02 00:52:15;;;;;;;1.90;1.80;;;;;;;24.14;78.94;99832.94;4996138;28;20046;-68
2023/08/02 00:54:42;;;;;;;1.70;1.60;;;;;;;24.22;78.34;99832.97;4996737;28;20061;-67
2023/08/02 00:57:10;;;;;;;4.43;1.50;;;;;;;24.08;77.67;99836.47;4996305;28;20054;-68
2023/08/02 00:59:40;;;;;;;1.08;1.05;;;;;;;24.12;77.56;99829.75;4995899;28;20054;-68
2023/08/02 01:02:08;;;;;;;1.73;1.35;;;;;;;24.08;78.13;99825.31;4978363;28;20057;-69
2023/08/02 01:04:37;;;;;;;1.10;1.08;;;;;;;24.00;77.16;99828.03;4978723;28;20061;-68
2023/08/02 01:07:26;;;;;;;2.63;1.33;;;;;;;24.11;76.41;99822.56;4978736;28;20089;-68
2023/08/02 01:10:04;;;;;;;1.42;1.33;;;;;;;24.19;76.81;99811.41;4995865;28;20401;-68
2023/08/02 01:12:35;;;;;;;2.03;1.10;;;;;;;24.12;76.55;99807.38;4978265;28;20058;-68
2023/08/02 01:15:06;;;;;;;1.50;1.40;;;;;;;24.09;76.96;99808.16;4996011;28;20046;-68
2023/08/02 01:17:35;;;;;;;1.02;0.90;;;;;;;23.97;77.33;99800.06;4995800;28;20054;-68
2023/08/02 01:20:05;;;;;;;2.90;1.48;;;;;;;23.88;77.39;99804.03;4978125;28;20055;-68
2023/08/02 01:22:33;;;;;;;2.08;1.63;;;;;;;24.00;77.89;99805.69;4995251;28;20058;-68
2023/08/02 01:25:03;;;;;;;2.25;1.42;;;;;;;24.01;77.74;99800.91;4995956;28;20051;-69
2023/08/02 01:27:43;;;;;;;1.85;1.63;;;;;;;23.64;79.30;99802.69;4995700;28;20061;-68
2023/08/02 01:30:15;;;;;;;2.20;1.75;;;;;;;23.73;79.29;99805.13;4977728;28;20070;-69
2023/08/02 01:32:43;;;;;;;1.83;1.70;;;;;;;23.99;78.11;99808.84;4995815;28;20386;-68
2023/08/02 01:35:13;;;;;;;2.05;1.58;;;;;;;23.90;78.39;99809.22;4995457;28;20050;-68
2023/08/02 01:37:42;;;;;;;2.25;1.38;;;;;;;24.05;78.04;99809.31;4995285;28;20062;-68
2023/08/02 01:40:11;;;;;;;3.92;1.65;;;;;;;24.05;77.95;99807.28;4995585;28;20478;-68
2023/08/02 01:42:39;;;;;;;3.28;1.70;;;;;;;23.97;77.42;99814.88;4994892;28;20046;-68
2023/08/02 01:45:08;;;;;;;1.75;1.63;;;;;;;24.17;77.07;99811.78;4977547;28;20512;-68
2023/08/02 01:47:36;;;;;;;1.40;1.30;;;;;;;24.09;77.74;99807.38;4977957;28;20050;-69
2023/08/02 01:50:04;;;;;;;2.33;1.77;;;;;;;24.14;76.76;99809.75;4993890;28;20725;-68
2023/08/02 01:52:32;;;;;;;2.53;1.90;;;;;;;24.10;76.42;99815.34;4994917;28;20386;-68
2023/08/02 01:55:00;;;;;;;1.88;1.70;;;;;;;24.13;76.21;99808.16;4995418;28;20046;-68
2023/08/02 01:57:28;;;;;;;2.13;1.67;;;;;;;24.09;77.34;99801.78;4977748;28;20433;-68
2023/08/02 01:59:55;;;;;;;1.65;1.27;;;;;;;24.28;74.20;99792.25;4977777;28;20111;-68
2023/08/02 02:02:23;;;;;;;3.55;1.30;;;;;;;24.20;74.30;99790.63;4977594;28;20053;-69
2023/08/02 02:04:52;;;;;;;1.30;1.20;;;;;;;24.22;74.91;99791.84;4995096;28;20057;-68
2023/08/02 02:07:19;;;;;;;1.63;1.52;;;;;;;24.30;73.98;99798.28;4977834;28;20065;-68
2023/08/02 02:09:47;;;;;;;3.20;1.60;;;;;;;24.15;74.17;99795.41;4977613;28;20042;-68
2023/08/02 02:12:15;;;;;;;1.30;1.20;;;;;;;23.99;71.97;99801.28;4994955;28;20061;-68
2023/08/02 02:14:43;;;;;;;1.58;1.40;;;;;;;23.58;75.49;99790.28;4995038;28;20046;-68
2023/08/02 02:17:11;;;;;;;4.28;1.60;;;;;;;23.41;78.29;99781.38;4977132;28;20058;-68
2023/08/02 02:19:39;;;;;;;2.05;1.95;;;;;;;23.46;78.86;99789.41;4976808;28;20409;-68
2023/08/02 02:22:07;;;;;;;4.85;1.63;;;;;;;23.42;80.10;99798.94;4994664;28;20058;-68
2023/08/02 02:24:35;;;;;;;4.43;1.73;;;;;;;23.41;79.14;99792.53;4994267;28;20069;-68
2023/08/02 02:27:03;;;;;;;5.03;1.23;;;;;;;23.35;76.88;99806.06;4994936;28;20047;-68
2023/08/02 02:29:31;;;;;;;1.65;1.55;;;;;;;23.43;76.62;99800.53;4977446;28;20038;-68
2023/08/02 02:31:59;;;;;;;2.38;1.60;;;;;;;23.69;75.02;99805.13;4993083;28;20065;-67
2023/08/02 02:34:27;;;;;;;1.58;1.42;;;;;;;23.58;74.71;99801.44;4994161;28;20050;-67
2023/08/02 02:36:55;;;;;;;1.63;1.52;;;;;;;23.62;73.67;99791.91;4993717;28;20413;-68
2023/08/02 02:39:24;;;;;;;4.15;1.40;;;;;;;23.45;73.98;99795.38;4993639;28;20046;-67
2023/08/02 02:41:52;;;;;;;1.27;1.17;;;;;;;23.54;74.67;99801.44;4994204;28;20046;-67
2023/08/02 02:44:20;;;;;;;1.50;1.40;;;;;;;23.68;75.41;99808.28;4993971;28;20125;-68
2023/08/02 02:46:48;;;;;;;1.48;1.38;;;;;;;23.71;74.83;99815.91;4976232;28;20520;-68
2023/08/02 02:49:16;;;;;;;1.73;1.33;;;;;;;23.57;74.23;99817.41;4994499;28;20409;-68
2023/08/02 02:51:44;;;;;;;2.47;1.20;;;;;;;23.65;72.63;99828.63;4994078;28;20055;-68
2023/08/02 02:54:12;;;;;;;2.28;1.25;;;;;;;23.75;74.79;99827.88;5010537;28;20057;-68
2023/08/02 02:56:40;;;;;;;1.98;1.50;;;;;;;23.88;72.54;99831.97;5013717;28;20050;-68
2023/08/02 02:59:08;;;;;;;1.20;1.10;;;;;;;23.91;74.13;99829.59;5012393;28;20491;-68
2023/08/02 03:01:36;;;;;;;0.80;0.80;;;;;;;23.75;71.76;99836.25;5012112;28;20057;-67
2023/08/02 03:04:04;;;;;;;1.17;1.08;;;;;;;23.81;73.54;99842.28;5013549;28;20473;-68
2023/08/02 03:06:31;;;;;;;1.88;1.23;;;;;;;23.98;74.09;99849.19;5012857;28;20378;-68
2023/08/02 03:08:59;;;;;;;2.67;1.63;;;;;;;24.01;73.33;99852.00;5013593;28;20050;-68
2023/08/02 03:11:27;;;;;;;1.88;1.60;;;;;;;23.99;70.87;99859.16;5012339;28;20118;-67
2023/08/02 03:13:55;;;;;;;2.25;1.58;;;;;;;23.96;72.02;99857.16;5013439;28;20056;-68
2023/08/02 03:16:23;;;;;;;1.67;1.25;;;;;;;23.93;70.86;99857.91;5013271;28;20046;-68
2023/08/02 03:18:51;;;;;;;2.20;1.80;;;;;;;24.03;73.50;99855.22;5013343;28;20042;-68
2023/08/02 03:21:19;;;;;;;1.80;1.65;;;;;;;24.05;72.55;99859.59;5013119;28;20405;-68
2023/08/02 03:23:47;;;;;;;2.25;1.45;;;;;;;24.02;73.09;99863.97;5013349;28;20054;-68
2023/08/02 03:26:15;;;;;;;1.98;1.50;;;;;;;24.02;73.26;99863.97;5012671;28;20133;-68
2023/08/02 03:28:43;;;;;;;1.75;1.40;;;;;;;23.89;72.94;99864.31;5013088;28;20401;-68
2023/08/02 03:31:11;;;;;;;3.83;1.60;;;;;;;23.83;73.29;99865.88;5012839;28;20053;-68
2023/08/02 03:33:39;;;;;;;2.28;2.08;;;;;;;23.61;74.44;99862.13;5012568;28;20061;-68
2023/08/02 03:36:07;;;;;;;2.30;2.10;;;;;;;23.82;74.79;99866.25;5013126;28;20493;-68
2023/08/02 03:38:35;;;;;;;2.20;2.00;;;;;;;23.85;75.34;99871.84;4995614;28;20045;-68
2023/08/02 03:41:03;;;;;;;2.05;1.67;;;;;;;23.76;73.89;99877.00;5012775;28;20050;-68
2023/08/02 03:43:31;;;;;;;1.85;1.67;;;;;;;23.74;75.39;99887.72;5012448;28;20061;-67
2023/08/02 03:45:59;;;;;;;2.72;1.63;;;;;;;23.75;75.93;99880.94;5012689;28;20046;-68
2023/08/02 03:48:28;;;;;;;1.58;1.48;;;;;;;23.64;73.60;99888.47;5012319;28;20050;-68
2023/08/02 03:50:57;;;;;;;1.50;1.40;;;;;;;23.74;75.92;99887.72;5012598;28;20053;-68
2023/08/02 03:53:26;;;;;;;2.75;1.90;;;;;;;23.88;73.32;99893.44;5012507;28;20058;-68
2023/08/02 03:55:54;;;;;;;3.33;1.63;;;;;;;23.80;72.64;99894.56;5012591;28;20057;-67
2023/08/02 03:58:22;;;;;;;2.08;1.45;;;;;;;23.68;75.56;99886.50;5012651;28;20054;-68
2023/08/02 04:00:51;;;;;;;1.38;1.25;;;;;;;23.67;73.50;99887.69;5012412;28;20069;-68
2023/08/02 04:03:19;;;;;;;1.48;1.38;;;;;;;23.58;nan;99885.22;5012536;28;20061;-68
2023/08/02 04:05:47;;;;;;;1.40;1.30;;;;;;;23.71;71.84;99889.31;5012416;28;20056;-68
2023/08/02 04:08:14;;;;;;;1.70;1.60;;;;;;;23.74;73.77;99884.94;5012431;28;20050;-68
2023/08/02 04:10:42;;;;;;;2.13;1.83;;;;;;;23.83;73.08;99881.81;5012407;28;20546;-68
2023/08/02 04:13:10;;;;;;;1.77;1.58;;;;;;;23.74;72.51;99884.94;5012006;28;20042;-68
2023/08/02 04:15:38;;;;;;;1.73;1.63;;;;;;;23.91;70.97;99891.03;5011284;28;20054;-68
2023/08/02 04:18:06;;;;;;;2.30;1.63;;;;;;;23.86;71.74;99879.03;5012255;28;20057;-68
2023/08/02 04:20:38;;;;;;;1.73;1.58;;;;;;;23.71;70.69;99883.72;5012442;28;20053;-68
2023/08/02 04:23:06;;;;;;;1.42;1.33;;;;;;;23.89;72.13;99886.66;5011965;28;20054;-68
2023/08/02 04:25:34;;;;;;;1.80;1.70;;;;;;;23.88;71.33;99887.84;5012144;28;20050;-68
2023/08/02 04:28:02;;;;;;;2.33;1.73;;;;;;;23.78;71.45;99891.34;5011439;28;20050;-68
2023/08/02 04:30:30;;;;;;;2.97;2.33;;;;;;;23.95;72.31;99892.66;5012067;28;20053;-68
2023/08/02 04:32:58;;;;;;;1.50;1.40;;;;;;;23.87;71.91;99893.81;5012332;28;20052;-68
2023/08/02 04:35:28;;;;;;;2.67;1.80;;;;;;;23.88;70.96;99899.03;5011544;28;20045;-68
2023/08/02 04:37:56;;;;;;;1.77;1.67;;;;;;;23.91;71.01;99905.00;5012337;28;20461;-68
2023/08/02 04:40:24;;;;;;;1.63;1.48;;;;;;;24.07;70.73;99907.50;5012117;28;20049;-68
2023/08/02 04:42:53;;;;;;;2.70;2.00;;;;;;;24.03;70.76;99910.28;5011264;28;20497;-68
2023/08/02 04:45:22;;;;;;;1.60;1.42;;;;;;;24.00;71.00;99906.28;5012011;28;20061;-68
2023/08/02 04:47:49;;;;;;;1.55;1.45;;;;;;;23.97;71.01;99901.47;5012315;28;20046;-68
2023/08/02 04:50:18;;;;;;;2.00;1.40;;;;;;;24.18;69.06;99904.84;5011963;28;20056;-68
2023/08/02 04:52:45;;;;;;;2.00;1.45;;;;;;;24.14;67.90;99913.16;5011709;28;20058;-69
2023/08/02 04:55:13;;;;;;;2.15;1.17;;;;;;;24.07;69.17;99911.16;5012090;28;20058;-68
2023/08/02 04:57:41;;;;;;;1.63;0.90;;;;;;;24.20;66.50;99908.84;5012174;28;20054;-68
2023/08/02 05:00:09;;;;;;;1.67;1.38;;;;;;;24.13;66.75;99917.16;5011944;28;20054;-69
2023/08/02 05:02:37;;;;;;;1.30;1.15;;;;;;;24.43;69.62;99911.34;5010984;28;20390;-68
2023/08/02 05:05:06;;;;;;;1.42;1.33;;;;;;;24.26;68.69;99909.25;5011756;28;20058;-68
2023/08/02 05:07:35;;;;;;;3.05;1.42;;;;;;;24.36;66.84;99908.53;5011794;28;20046;-68
2023/08/02 05:10:07;;;;;;;1.63;1.27;;;;;;;24.25;67.30;99914.03;5011347;28;20050;-69
2023/08/02 05:12:38;;;;;;;1.48;1.23;;;;;;;24.38;66.64;99925.72;5011308;28;20401;-68
2023/08/02 05:15:06;;;;;;;2.55;1.10;;;;;;;24.50;65.95;99918.19;5011735;28;20481;-68
2023/08/02 05:17:34;;;;;;;1.42;1.20;;;;;;;24.32;67.01;99913.28;5011241;28;20046;-68
2023/08/02 05:20:02;;;;;;;1.60;1.27;;;;;;;24.52;66.51;99910.19;5011687;28;20061;-68
2023/08/02 05:22:31;;;;;;;1.25;1.08;;;;;;;24.42;66.58;99912.56;5010770;28;20057;-68
2023/08/02 05:24:59;;;;;;;3.08;1.20;;;;;;;24.21;65.28;99912.44;5012976;28;20137;-68
2023/08/02 05:27:27;;;;;;;2.55;1.13;;;;;;;24.32;65.48;99913.28;5014082;28;20062;-68
2023/08/02 05:29:55;;;;;;;1.77;1.20;;;;;;;24.37;65.02;99914.91;5015211;28;20050;-68
2023/08/02 05:32:22;;;;;;;5.00;1.40;;;;;;;24.62;63.95;99919.81;5014974;28;20045;-68
2023/08/02 05:34:50;;;;;;;1.38;1.23;;;;;;;24.77;64.01;99923.47;5015091;28;20058;-69
2023/08/02 05:37:20;;;;;;;1.38;1.27;;;;;;;24.72;64.01;99923.88;5015290;28;20049;-68
2023/08/02 05:39:48;;;;;;;1.00;0.90;;;;;;;24.76;63.78;99922.69;5014977;28;20068;-68
2023/08/02 05:42:15;;;;;;;1.25;1.15;;;;;;;24.66;63.58;99926.22;5015071;28;20046;-69
2023/08/02 05:44:43;;;;;;;3.40;1.35;;;;;;;24.60;64.40;99937.00;5013575;28;20046;-68
2023/08/02 05:47:12;;;;;;;1.75;1.13;;;;;;;24.48;64.42;99940.94;5014858;28;20057;-68
2023/08/02 05:49:40;;;;;;;1.40;1.13;;;;;;;24.49;64.68;99941.75;5014859;28;20572;-68
2023/08/02 05:52:08;;;;;;;1.38;1.27;;;;;;;24.71;64.31;99953.84;5014450;28;20050;-68
2023/08/02 05:54:35;;;;;;;0.93;0.85;;;;;;;24.73;62.12;99961.84;5013903;28;20495;-68
2023/08/02 05:57:04;;;;;;;2.08;1.88;;;;;;;25.01;62.68;99960.34;5014882;28;20046;-68
2023/08/02 05:59:31;;;;;;;1.15;0.93;;;;;;;24.89;62.56;99959.53;5014480;28;20057;-69
2023/08/02 06:02:00;;;;;;;1.02;0.98;;;;;;;24.73;63.33;99950.66;5014256;28;20048;-69
2023/08/02 06:04:28;;;;;;;1.40;1.25;;;;;;;24.55;63.92;99942.97;5014837;28;20546;-69
2023/08/02 06:06:56;;;;;;;4.32;1.15;;;;;;;24.57;65.00;99937.78;5014744;28;20050;-68
2023/08/02 06:09:25;;;;;;;1.48;1.00;;;;;;;24.38;67.25;99927.69;5014479;28;20060;-67
2023/08/02 06:11:53;;;;;;;1.05;0.90;;;;;;;24.75;66.43;99931.47;5014590;28;20057;-68
2023/08/02 06:14:21;;;;;;;1.20;1.10;;;;;;;24.45;68.06;99933.34;5014000;28;20492;-69
2023/08/02 06:16:50;;;;;;;1.40;1.30;;;;;;;24.59;67.65;99929.81;5014376;28;20054;-68
2023/08/02 06:19:18;;;;;;;1.45;1.30;;;;;;;24.37;67.85;99934.47;5012865;28;20508;-68
2023/08/02 06:21:47;;;;;;;1.30;1.20;;;;;;;24.23;69.53;99929.59;5013518;28;20049;-69
2023/08/02 06:24:15;;;;;;;2.67;1.15;;;;;;;24.42;69.42;99923.75;5013014;28;20053;-68
2023/08/02 06:26:43;;;;;;;2.05;1.30;;;;;;;24.48;68.56;99934.56;5013650;28;20409;-67
2023/08/02 06:29:14;;;;;;;1.77;1.10;;;;;;;24.67;68.50;99937.03;5013559;28;20064;-69
2023/08/02 06:31:42;;;;;;;1.63;1.33;;;;;;;24.36;69.26;99946.84;5013708;28;20052;-68
2023/08/02 06:34:10;;;;;;;2.38;1.30;;;;;;;24.70;69.22;99955.81;5013217;28;20057;-68
2023/08/02 06:36:39;;;;;;;0.98;0.93;;;;;;;24.88;68.35;99952.31;5013271;28;20413;-68
2023/08/02 06:39:07;;;;;;;1.33;1.10;;;;;;;24.40;69.96;99940.09;5012794;28;20408;-67
2023/08/02 06:41:35;;;;;;;1.83;1.15;;;;;;;24.32;70.11;99949.63;5013200;28;20058;-67
2023/08/02 06:44:06;;;;;;;1.58;0.90;;;;;;;24.31;68.11;99942.44;5014104;28;20389;-68
2023/08/02 06:46:35;;;;;;;2.35;1.30;;;;;;;24.43;68.05;99952.47;5013637;28;20045;-68
2023/08/02 06:49:03;;;;;;;1.58;1.30;;;;;;;24.28;66.73;99959.97;5013895;28;20054;-68
2023/08/02 06:51:31;;;;;;;1.38;1.27;;;;;;;24.62;68.39;99951.41;5014163;28;20057;-67
2023/08/02 06:54:00;;;;;;;1.08;0.85;;;;;;;24.55;65.84;99951.38;5013415;28;20069;-68
2023/08/02 06:56:28;;;;;;;1.27;1.17;;;;;;;24.77;65.96;99959.84;5013954;28;20058;-68
2023/08/02 06:58:56;;;;;;;1.20;0.93;;;;;;;24.42;64.40;99953.69;5013010;28;20053;-68
2023/08/02 07:01:25;;;;;;;1.65;1.30;;;;;;;24.58;65.67;99955.38;5013751;28;20054;-68
2023/08/02 07:03:53;;;;;;;1.75;1.00;;;;;;;24.70;65.80;99947.44;5013297;28;20064;-67
2023/08/02 07:06:21;;;;;;;1.38;1.13;;;;;;;24.82;62.39;99953.91;5013622;28;20054;-68
2023/08/02 07:08:50;;;;;;;1.00;0.90;;;;;;;24.96;62.86;99948.38;5013318;28;20073;-68
2023/08/02 07:11:19;;;;;;;1.08;0.88;;;;;;;25.03;62.06;99946.78;5013643;28;20050;-68
2023/08/02 07:14:07;;;;;;;1.00;0.70;;;;;;;25.28;62.14;99940.44;5014144;28;20049;-68
2023/08/02 07:16:35;;;;;;;1.95;0.90;;;;;;;25.63;60.44;99950.13;5013146;28;20057;-68
2023/08/02 07:19:03;;;;;;;1.58;0.80;;;;;;;26.26;60.49;99969.34;5013556;28;20057;-68
2023/08/02 07:21:32;;;;;;;1.83;1.02;;;;;;;25.98;59.94;99956.94;5014034;28;20112;-68
2023/08/02 07:24:00;;;;;;;1.67;0.88;;;;;;;25.89;57.96;99964.94;5013645;28;20378;-68
2023/08/02 07:26:28;;;;;;;0.98;0.88;;;;;;;26.00;59.28;99960.13;5012996;28;20519;-68
2023/08/02 07:28:56;;;;;;;1.33;0.77;;;;;;;25.97;60.44;99958.13;5012728;28;20497;-68
2023/08/02 07:31:25;;;;;;;0.93;0.90;;;;;;;25.77;59.99;99958.53;5012400;28;20375;-68
2023/08/02 07:33:53;;;;;;;1.15;0.95;;;;;;;25.62;60.40;99966.13;5012831;28;20405;-67
2023/08/02 07:36:21;;;;;;;1.35;1.10;;;;;;;25.51;59.71;99962.47;5012723;28;20378;-68
2023/08/02 07:38:50;;;;;;;1.50;1.20;;;;;;;25.42;61.17;99976.88;5011586;28;20509;-68
2023/08/02 07:41:18;;;;;;;0.80;0.80;;;;;;;25.31;59.73;99968.44;5012388;28;20501;-68
2023/08/02 07:43:49;;;;;;;1.48;1.05;;;;;;;25.37;60.57;99982.88;5012062;28;20049;-68
2023/08/02 07:46:19;;;;;;;1.15;0.80;;;;;;;25.60;61.46;99976.13;4995485;28;20672;-67
2023/08/02 07:48:50;;;;;;;1.48;0.98;;;;;;;25.57;60.58;99974.91;5011671;28;20057;-68
2023/08/02 07:51:19;;;;;;;1.20;1.10;;;;;;;25.53;60.66;99970.50;5013106;28;20053;-69
2023/08/02 07:53:49;;;;;;;0.93;0.85;;;;;;;26.00;60.75;99973.34;5012061;28;20408;-68
2023/08/02 07:56:17;;;;;;;1.20;1.05;;;;;;;25.81;59.79;99985.75;5013137;28;20397;-68
2023/08/02 07:58:46;;;;;;;1.52;0.80;;;;;;;26.26;61.53;99996.59;4995343;28;20400;-68
2023/08/02 08:01:14;;;;;;;1.50;1.40;;;;;;;26.25;60.32;99983.78;5012825;28;20400;-68
2023/08/02 08:03:42;;;;;;;1.98;1.00;;;;;;;26.05;60.47;99991.75;5012735;28;20054;-68
2023/08/02 08:06:13;;;;;;;1.30;0.90;;;;;;;26.51;60.65;99995.72;5012600;28;20473;-68
2023/08/02 08:08:42;;;;;;;1.17;1.00;;;;;;;26.01;60.30;99986.16;5013091;28;20396;-68
2023/08/02 08:11:11;;;;;;;1.73;1.42;;;;;;;26.43;60.07;99995.75;5012087;28;20049;-68
2023/08/02 08:13:40;;;;;;;0.95;0.90;;;;;;;26.41;60.58;99997.34;5013090;28;20054;-68
2023/08/02 08:16:08;;;;;;;1.27;1.00;;;;;;;26.82;60.91;100015.69;5011923;28;20058;-68
2023/08/02 08:18:39;;;;;;;1.63;1.27;;;;;;;27.03;60.82;100008.44;5013041;28;20046;-68
2023/08/02 08:21:07;;;;;;;1.27;1.17;;;;;;;26.55;60.14;100008.53;5012877;28;20054;-68
2023/08/02 08:23:35;;;;;;;1.90;1.15;;;;;;;26.44;60.91;100010.56;5013452;28;20068;-68
2023/08/02 08:26:04;;;;;;;1.27;1.05;;;;;;;26.25;61.17;100003.41;5010944;28;20056;-67
2023/08/02 08:28:32;;;;;;;1.38;0.93;;;;;;;26.61;60.09;99994.09;5012929;28;20046;-68
2023/08/02 08:31:02;;;;;;;1.38;1.27;;;;;;;26.82;61.71;99996.03;5012634;28;20054;-68
2023/08/02 08:33:31;;;;;;;3.58;1.35;;;;;;;27.03;61.18;99997.97;5013183;28;20057;-68
2023/08/02 08:35:59;;;;;;;1.40;1.02;;;;;;;27.19;58.37;100000.34;5013022;28;20049;-68
2023/08/02 08:38:28;;;;;;;1.88;1.27;;;;;;;27.14;59.20;99997.13;5011990;28;20050;-68
2023/08/02 08:40:57;;;;;;;2.88;1.50;;;;;;;27.36;57.83;99998.63;5011064;28;20041;-68
2023/08/02 08:43:27;;;;;;;2.15;1.20;;;;;;;27.35;57.96;100002.66;5011676;28;20489;-67
2023/08/02 08:46:00;;;;;;;2.55;1.02;;;;;;;27.57;56.85;100012.94;5012118;28;20052;-69
2023/08/02 08:48:29;;;;;;;1.50;1.30;;;;;;;27.33;60.37;99998.66;5012059;28;20054;-69
2023/08/02 08:50:59;;;;;;;2.97;1.30;;;;;;;27.56;59.58;100003.72;5011373;28;20049;-68
2023/08/02 08:53:33;;;;;;;1.38;1.27;;;;;;;27.34;58.33;100008.66;5011832;28;20050;-69
2023/08/02 08:56:03;;;;;;;3.35;1.40;;;;;;;27.50;57.69;100010.97;4994335;28;20049;-68
2023/08/02 08:58:34;;;;;;;1.30;0.90;;;;;;;27.46;57.64;100007.41;5011937;28;20053;-68
2023/08/02 09:01:06;;;;;;;1.90;1.10;;;;;;;27.46;59.71;100007.41;5014779;28;20052;-68
2023/08/02 09:03:35;;;;;;;1.75;1.17;;;;;;;27.75;58.36;100012.84;5015435;28;20046;-68
2023/08/02 09:06:04;;;;;;;1.92;1.50;;;;;;;27.68;56.92;100016.53;5014823;28;20058;-70
2023/08/02 09:08:47;;;;;;;2.58;1.60;;;;;;;28.26;57.63;100007.63;5015787;28;20061;-69
2023/08/02 09:11:16;;;;;;;1.00;0.90;;;;;;;28.19;56.72;99996.41;5014813;28;20298;-68
2023/08/02 09:13:45;;;;;;;2.95;1.80;;;;;;;27.41;57.73;99999.41;5015795;28;20409;-68
2023/08/02 09:16:15;;;;;;;2.70;1.50;;;;;;;27.28;59.10;100001.88;5014684;28;20057;-69
2023/08/02 09:18:47;;;;;;;1.52;1.42;;;;;;;27.84;59.34;100003.94;5015558;28;20050;-68
2023/08/02 09:21:21;;;;;;;2.10;1.30;;;;;;;28.48;54.53;100012.25;5015843;28;20050;-69
2023/08/02 09:24:00;;;;;;;2.45;1.30;;;;;;;28.80;54.69;100008.28;5015747;28;20053;-68
2023/08/02 09:26:28;;;;;;;1.83;1.60;;;;;;;29.15;53.06;100000.63;5015897;28;20053;-69
2023/08/02 09:28:58;;;;;;;3.58;1.40;;;;;;;28.79;53.13;100009.50;5015811;28;20042;-68
2023/08/02 09:31:28;;;;;;;1.88;1.27;;;;;;;28.91;55.10;100006.16;5015719;28;20054;-69
2023/08/02 09:33:57;;;;;;;1.42;1.33;;;;;;;29.14;53.83;100009.50;5015523;28;20060;-68
2023/08/02 09:36:30;;;;;;;1.55;1.42;;;;;;;28.51;53.54;100012.22;5015787;28;20056;-70
2023/08/02 09:39:04;;;;;;;0.98;0.98;;;;;;;27.72;55.91;100013.69;5015930;28;20069;-69
2023/08/02 09:41:32;;;;;;;1.63;1.15;;;;;;;28.13;55.94;99998.88;5015266;28;20060;-70
2023/08/02 09:44:03;;;;;;;1.88;1.63;;;;;;;28.23;56.93;99997.22;5015905;28;20054;-68
2023/08/02 09:46:34;;;;;;;1.75;1.20;;;;;;;28.60;55.38;99989.22;5015465;28;20140;-68
2023/08/02 09:49:20;;;;;;;4.15;1.73;;;;;;;28.75;56.66;99994.66;5014196;28;20058;-68
2023/08/02 09:51:48;;;;;;;2.58;1.40;;;;;;;27.68;57.80;99994.03;5014514;28;20054;-68
2023/08/02 09:54:17;;;;;;;3.70;1.88;;;;;;;27.86;58.00;99991.06;5014530;28;20511;-69
2023/08/02 09:56:46;;;;;;;1.63;1.27;;;;;;;27.72;57.15;99991.19;5013836;28;20054;-69
2023/08/02 09:59:17;;;;;;;1.77;1.30;;;;;;;27.87;58.85;99984.22;5014778;28;20370;-69
2023/08/02 10:01:48;;;;;;;2.05;1.60;;;;;;;27.89;58.50;99983.81;5014268;28;20049;-68
2023/08/02 10:04:18;;;;;;;2.88;1.50;;;;;;;28.23;56.51;99982.34;5014603;28;20053;-69
2023/08/02 10:07:02;;;;;;;2.15;1.88;;;;;;;28.63;56.19;99987.56;5013996;28;20443;-69
2023/08/02 10:09:35;;;;;;;2.60;1.77;;;;;;;29.09;54.01;99989.03;5014168;28;20050;-69
2023/08/02 10:12:06;;;;;;;10.32;2.55;;;;;;;29.36;54.22;99985.44;5012949;28;20049;-68
2023/08/02 10:14:35;;;;;;;1.90;1.60;;;;;;;29.25;55.12;99984.78;5014610;28;20045;-69
2023/08/02 10:17:04;;;;;;;3.45;1.67;;;;;;;29.50;54.27;99990.09;5013648;28;20413;-68
2023/08/02 10:19:34;;;;;;;3.20;2.15;;;;;;;29.79;54.03;99994.47;5014542;28;20049;-69
2023/08/02 10:22:04;;;;;;;2.42;1.88;;;;;;;30.01;53.00;99994.13;5013797;28;20401;-69
2023/08/02 10:24:32;;;;;;;1.60;1.50;;;;;;;29.48;52.39;100000.19;5014296;28;20065;-68
2023/08/02 10:27:05;;;;;;;1.90;1.67;;;;;;;28.97;53.13;99989.59;5014154;28;20057;-68
2023/08/02 10:29:35;;;;;;;4.90;2.22;;;;;;;29.16;55.43;99993.78;5013696;28;20054;-69
2023/08/02 10:32:14;;;;;;;2.92;2.10;;;;;;;29.45;52.45;100001.81;5014135;28;20798;-68
2023/08/02 10:34:42;;;;;;;5.43;2.10;;;;;;;29.13;54.28;99994.63;5013940;28;20049;-69
2023/08/02 10:37:10;;;;;;;1.90;1.80;;;;;;;29.14;52.82;99990.59;5013859;28;20049;-69
2023/08/02 10:39:45;;;;;;;3.72;2.13;;;;;;;29.29;55.65;99996.00;4996763;28;20397;-68
2023/08/02 10:42:16;;;;;;;3.92;2.33;;;;;;;28.97;54.99;99981.94;5013979;28;20057;-66
2023/08/02 10:44:56;;;;;;;2.45;1.65;;;;;;;29.91;54.03;99976.97;5013995;28;20386;-67
2023/08/02 10:47:28;;;;;;;2.45;1.75;;;;;;;29.97;52.71;99982.91;5014027;28;20042;-67
2023/08/02 10:49:57;;;;;;;2.17;1.98;;;;;;;29.87;51.65;99981.06;5014022;28;20057;-67
2023/08/02 10:52:37;;;;;;;4.20;1.98;;;;;;;30.52;53.27;99971.47;5013988;28;20412;-67
2023/08/02 10:55:17;;;;;;;3.83;2.33;;;;;;;30.38;52.93;99977.38;5013343;28;20453;-66
2023/08/02 10:57:54;;;;;;;2.58;2.08;;;;;;;30.39;51.04;99967.69;5013906;28;20731;-67
2023/08/02 11:00:25;;;;;;;4.93;2.17;;;;;;;30.33;52.08;99960.94;5013672;28;20049;-66
2023/08/02 11:02:54;;;;;;;3.50;2.22;;;;;;;30.03;52.94;99953.00;5012842;28;20060;-66
2023/08/02 11:05:46;;;;;;;2.75;2.35;;;;;;;29.93;53.64;99958.81;5012556;28;20054;-67
2023/08/02 11:08:14;;;;;;;7.20;2.60;;;;;;;30.15;54.76;99960.03;5012253;28;20050;-68
2023/08/02 11:10:54;;;;;;;4.15;2.50;;;;;;;30.51;54.35;99957.78;5012703;28;20374;-67
2023/08/02 11:13:39;;;;;;;4.70;2.30;;;;;;;30.94;54.10;99944.81;5012799;28;20476;-67
2023/08/02 11:16:09;;;;;;;3.92;2.70;;;;;;;30.97;53.07;99943.94;5012473;28;20051;-68
2023/08/02 11:18:42;;;;;;;2.90;2.35;;;;;;;31.48;50.77;99954.13;5013118;28;20053;-67
2023/08/02 11:21:13;;;;;;;3.25;2.17;;;;;;;31.02;50.79;99945.47;4994966;28;20624;-67
2023/08/02 11:23:42;;;;;;;3.83;2.60;;;;;;;30.73;54.48;99940.44;5012218;28;20120;-67
2023/08/02 11:26:15;;;;;;;3.15;2.28;;;;;;;29.89;54.35;99941.94;5012731;28;20483;-67
2023/08/02 11:28:52;;;;;;;5.45;2.75;;;;;;;30.71;52.77;99940.84;5011945;28;20053;-68
2023/08/02 11:31:25;;;;;;;5.40;2.60;;;;;;;30.88;54.08;99936.06;5013203;28;20046;-66
2023/08/02 11:33:54;;;;;;;3.03;2.72;;;;;;;30.64;54.29;99933.28;5012511;28;20053;-67
2023/08/02 11:36:22;;;;;;;3.35;2.70;;;;;;;30.21;52.51;99926.50;5012138;28;20065;-66
2023/08/02 11:38:51;;;;;;;4.10;2.45;;;;;;;30.34;53.52;99937.94;5012175;28;20394;-66
2023/08/02 11:41:21;;;;;;;3.35;2.42;;;;;;;30.34;55.92;99937.94;5012411;28;20420;-67